createdAt,value
2023-12-27T00:01:53.294Z,78.39
2023-12-27T00:04:22.026Z,78.26
2023-12-27T00:06:52.839Z,78.37
2023-12-27T00:09:21.277Z,78.25
2023-12-27T00:11:49.585Z,78.17
2023-12-27T00:14:17.831Z,78.43
2023-12-27T00:16:46.219Z,78.32
2023-12-27T00:19:14.576Z,78.36
2023-12-27T00:21:42.845Z,78.24
2023-12-27T00:24:11.015Z,78.44
2023-12-27T00:26:39.321Z,78.47
2023-12-27T00:29:07.896Z,78.55
2023-12-27T00:31:36.162Z,78.76
2023-12-27T00:34:04.963Z,78.72
2023-12-27T00:36:33.300Z,78.78
2023-12-27T00:39:02.627Z,78.88
2023-12-27T00:41:30.915Z,78.98
2023-12-27T00:43:59.164Z,78.89
2023-12-27T00:46:27.473Z,78.87
2023-12-27T00:48:56.145Z,78.83
2023-12-27T00:51:24.516Z,79.17
2023-12-27T00:53:53.935Z,78.96
2023-12-27T00:56:24.237Z,79.14
2023-12-27T00:58:52.992Z,79.00
2023-12-27T01:01:21.311Z,79.15
2023-12-27T01:03:50.180Z,79.48
2023-12-27T01:06:18.705Z,79.43
2023-12-27T01:08:46.929Z,79.60
2023-12-27T01:11:15.555Z,79.43
2023-12-27T01:13:43.850Z,79.41
2023-12-27T01:16:12.104Z,79.72
2023-12-27T01:18:42.227Z,79.33
2023-12-27T01:21:10.554Z,79.46
2023-12-27T01:23:38.809Z,79.28
2023-12-27T01:26:07.506Z,79.48
2023-12-27T01:28:35.698Z,79.62
2023-12-27T01:31:04.376Z,79.39
2023-12-27T01:33:32.761Z,79.41
2023-12-27T01:36:09.843Z,79.53
2023-12-27T01:38:38.057Z,79.47
2023-12-27T01:41:06.461Z,79.32
2023-12-27T01:43:34.712Z,79.75
2023-12-27T01:46:04.221Z,79.54
2023-12-27T01:48:32.836Z,79.66
2023-12-27T01:51:02.526Z,79.81
2023-12-27T01:53:31.253Z,80.05
2023-12-27T01:56:02.825Z,79.91
2023-12-27T01:58:31.198Z,79.69
2023-12-27T02:01:00.094Z,79.79
2023-12-27T02:03:28.600Z,79.59
2023-12-27T02:05:58.833Z,79.61
2023-12-27T02:08:29.194Z,79.76
2023-12-27T02:10:57.446Z,79.72
2023-12-27T02:13:25.738Z,79.77
2023-12-27T02:15:54.412Z,79.69
2023-12-27T02:18:23.312Z,79.83
2023-12-27T02:20:53.547Z,80.15
2023-12-27T02:23:26.291Z,80.11
2023-12-27T02:25:56.049Z,80.38
2023-12-27T02:28:24.370Z,80.33
2023-12-27T02:30:56.199Z,80.18
2023-12-27T02:33:25.435Z,80.53
2023-12-27T02:35:53.796Z,80.39
2023-12-27T02:38:22.174Z,80.52
2023-12-27T02:40:50.439Z,80.48
2023-12-27T02:43:18.685Z,80.55
2023-12-27T02:45:46.871Z,80.10
2023-12-27T02:48:15.179Z,80.35
2023-12-27T02:50:45.830Z,80.10
2023-12-27T02:53:14.180Z,80.25
2023-12-27T02:55:42.617Z,80.24
2023-12-27T02:58:10.826Z,80.38
2023-12-27T03:00:39.309Z,80.23
2023-12-27T03:03:07.764Z,80.11
2023-12-27T03:05:36.222Z,80.08
2023-12-27T03:08:05.217Z,79.59
2023-12-27T03:10:33.531Z,79.76
2023-12-27T03:13:01.715Z,79.52
2023-12-27T03:15:29.996Z,79.38
2023-12-27T03:17:59.306Z,79.80
2023-12-27T03:20:27.777Z,79.22
2023-12-27T03:22:56.123Z,79.33
2023-12-27T03:25:24.348Z,79.54
2023-12-27T03:27:52.576Z,79.35
2023-12-27T03:30:20.894Z,79.20
2023-12-27T03:32:49.422Z,79.23
2023-12-27T03:35:17.795Z,79.30
2023-12-27T03:37:46.422Z,79.35
2023-12-27T03:40:14.732Z,79.25
2023-12-27T03:42:42.964Z,79.30
2023-12-27T03:45:11.194Z,79.40
2023-12-27T03:47:39.440Z,79.59
2023-12-27T03:50:08.212Z,79.07
2023-12-27T03:52:36.502Z,78.78
2023-12-27T03:55:06.142Z,78.58
2023-12-27T03:57:34.476Z,78.66
2023-12-27T04:00:02.980Z,78.90
2023-12-27T04:02:35.550Z,78.63
2023-12-27T04:05:05.117Z,78.65
2023-12-27T04:07:33.321Z,78.63
2023-12-27T04:10:01.830Z,78.65
2023-12-27T04:12:30.076Z,78.55
2023-12-27T04:14:58.357Z,78.31
2023-12-27T04:17:27.140Z,78.43
2023-12-27T04:19:55.416Z,78.26
2023-12-27T04:22:23.623Z,78.32
2023-12-27T04:24:51.932Z,78.57
2023-12-27T04:27:20.218Z,78.45
2023-12-27T04:29:48.492Z,78.47
2023-12-27T04:32:16.681Z,78.00
2023-12-27T04:34:44.981Z,78.18
2023-12-27T04:37:13.399Z,78.51
2023-12-27T04:39:41.639Z,78.09
2023-12-27T04:42:10.176Z,78.26
2023-12-27T04:44:38.403Z,77.84
2023-12-27T04:47:08.762Z,78.38
2023-12-27T04:49:37.313Z,78.28
2023-12-27T04:52:06.819Z,77.96
2023-12-27T04:54:35.125Z,78.05
2023-12-27T04:57:03.786Z,77.96
2023-12-27T04:59:32.119Z,77.83
2023-12-27T05:02:00.373Z,77.68
2023-12-27T05:04:28.679Z,77.52
2023-12-27T05:06:57.592Z,77.82
2023-12-27T05:09:25.842Z,78.09
2023-12-27T05:11:54.095Z,77.83
2023-12-27T05:14:22.289Z,78.27
2023-12-27T05:16:52.077Z,77.91
2023-12-27T05:19:20.369Z,77.65
2023-12-27T05:21:48.723Z,77.94
2023-12-27T05:24:17.078Z,77.39
2023-12-27T05:26:45.690Z,77.68
2023-12-27T05:29:13.887Z,77.33
2023-12-27T05:31:42.179Z,77.38
2023-12-27T05:34:10.592Z,77.93
2023-12-27T05:36:38.938Z,77.72
2023-12-27T05:39:07.422Z,78.16
2023-12-27T05:41:35.809Z,77.87
2023-12-27T05:44:04.570Z,77.62
2023-12-27T05:46:36.479Z,77.53
2023-12-27T05:49:04.957Z,77.37
2023-12-27T05:51:34.654Z,77.81
2023-12-27T05:54:04.280Z,77.67
2023-12-27T05:56:33.417Z,77.83
2023-12-27T05:59:01.963Z,77.96
2023-12-27T06:01:30.353Z,77.78
2023-12-27T06:03:58.654Z,77.59
2023-12-27T06:06:27.011Z,77.50
2023-12-27T06:08:55.308Z,77.45
2023-12-27T06:11:23.602Z,77.22
2023-12-27T06:13:51.897Z,77.36
2023-12-27T06:16:20.182Z,77.52
2023-12-27T06:18:48.551Z,77.51
2023-12-27T06:21:16.979Z,77.70
2023-12-27T06:23:45.278Z,77.52
2023-12-27T06:26:13.804Z,77.74
2023-12-27T06:28:45.198Z,77.72
2023-12-27T06:31:13.639Z,78.11
2023-12-27T06:33:42.195Z,78.16
2023-12-27T06:36:10.626Z,78.17
2023-12-27T06:38:39.277Z,78.08
2023-12-27T06:41:08.451Z,78.26
2023-12-27T06:43:36.773Z,78.45
2023-12-27T06:46:05.086Z,78.67
2023-12-27T06:48:33.661Z,78.78
2023-12-27T06:51:04.626Z,78.38
2023-12-27T06:53:33.080Z,78.26
2023-12-27T06:56:02.561Z,78.55
2023-12-27T06:58:31.028Z,78.64
2023-12-27T07:00:59.565Z,78.55
2023-12-27T07:03:28.291Z,78.67
2023-12-27T07:05:56.802Z,78.61
2023-12-27T07:08:25.200Z,78.81
2023-12-27T07:10:53.491Z,78.80
2023-12-27T07:13:21.803Z,78.64
2023-12-27T07:15:50.136Z,79.13
2023-12-27T07:18:18.670Z,78.84
2023-12-27T07:20:47.216Z,79.21
2023-12-27T07:23:15.529Z,79.18
2023-12-27T07:25:43.879Z,78.96
2023-12-27T07:28:12.237Z,79.11
2023-12-27T07:30:40.672Z,79.52
2023-12-27T07:33:09.365Z,79.53
2023-12-27T07:35:37.761Z,79.83
2023-12-27T07:38:06.071Z,79.79
2023-12-27T07:40:34.308Z,79.93
2023-12-27T07:43:03.564Z,80.11
2023-12-27T07:45:32.167Z,80.28
2023-12-27T07:48:00.856Z,80.12
2023-12-27T07:50:29.523Z,80.61
2023-12-27T07:52:57.934Z,80.56
2023-12-27T07:55:26.268Z,80.56
2023-12-27T07:57:54.893Z,80.54
2023-12-27T08:00:23.378Z,80.88
2023-12-27T08:02:51.772Z,81.10
2023-12-27T08:05:20.191Z,80.84
2023-12-27T08:07:48.619Z,81.17
2023-12-27T08:10:17.115Z,81.12
2023-12-27T08:12:46.701Z,81.01
2023-12-27T08:15:15.108Z,80.94
2023-12-27T08:17:43.512Z,80.72
2023-12-27T08:20:12.150Z,80.60
2023-12-27T08:22:40.484Z,80.66
2023-12-27T08:25:13.701Z,80.96
2023-12-27T08:27:42.153Z,80.82
2023-12-27T08:30:11.086Z,80.81
2023-12-27T08:32:39.586Z,80.72
2023-12-27T08:35:08.445Z,80.77
2023-12-27T08:37:36.797Z,80.97
2023-12-27T08:40:06.049Z,80.70
2023-12-27T08:42:34.431Z,80.78
2023-12-27T08:45:02.914Z,80.74
2023-12-27T08:47:31.337Z,80.75
2023-12-27T08:50:04.485Z,80.84
2023-12-27T08:52:34.413Z,80.77
2023-12-27T08:55:04.759Z,81.05
2023-12-27T08:57:36.276Z,80.94
2023-12-27T09:00:11.981Z,80.80
2023-12-27T09:02:43.352Z,80.63
2023-12-27T09:05:11.731Z,80.65
2023-12-27T09:07:40.300Z,80.54
2023-12-27T09:10:09.011Z,80.55
2023-12-27T09:12:40.247Z,80.31
2023-12-27T09:15:09.709Z,80.24
2023-12-27T09:17:38.214Z,79.89
2023-12-27T09:20:09.297Z,79.62
2023-12-27T09:22:37.852Z,79.34
2023-12-27T09:25:07.144Z,78.79
2023-12-27T09:27:35.668Z,78.43
2023-12-27T09:30:05.529Z,78.29
2023-12-27T09:32:33.967Z,77.42
2023-12-27T09:35:04.094Z,76.81
2023-12-27T09:37:32.691Z,76.88
2023-12-27T09:40:00.999Z,76.37
2023-12-27T09:42:30.840Z,75.45
2023-12-27T09:45:01.987Z,75.29
2023-12-27T09:47:31.724Z,74.96
2023-12-27T09:50:01.081Z,74.52
2023-12-27T09:52:31.349Z,74.29
2023-12-27T09:54:59.941Z,74.30
2023-12-27T09:57:28.381Z,74.05
2023-12-27T09:59:57.615Z,73.83
2023-12-27T10:02:30.272Z,73.34
2023-12-27T10:05:20.484Z,73.24
2023-12-27T10:07:49.201Z,73.10
2023-12-27T10:10:25.183Z,73.01
2023-12-27T10:12:57.872Z,72.75
2023-12-27T10:15:26.342Z,72.28
2023-12-27T10:17:54.820Z,71.20
2023-12-27T10:20:39.634Z,70.94
2023-12-27T10:23:08.319Z,70.45
2023-12-27T10:25:37.397Z,69.90
2023-12-27T10:28:06.113Z,69.65
2023-12-27T10:30:34.836Z,68.76
2023-12-27T10:33:04.760Z,68.82
2023-12-27T10:35:33.690Z,68.93
2023-12-27T10:38:04.407Z,68.65
2023-12-27T10:40:35.876Z,68.68
2023-12-27T10:43:04.624Z,68.33
2023-12-27T10:45:34.129Z,67.71
2023-12-27T10:48:07.691Z,67.68
2023-12-27T10:50:36.400Z,66.84
2023-12-27T10:53:09.044Z,66.84
2023-12-27T10:55:39.497Z,66.17
2023-12-27T10:58:16.206Z,66.32
2023-12-27T11:00:45.955Z,66.17
2023-12-27T11:03:16.030Z,65.90
2023-12-27T11:05:45.140Z,65.53
2023-12-27T11:08:15.310Z,65.60
2023-12-27T11:10:46.039Z,65.55
2023-12-27T11:13:17.041Z,65.64
2023-12-27T11:15:47.388Z,65.93
2023-12-27T11:18:17.615Z,65.92
2023-12-27T11:20:48.725Z,65.21
2023-12-27T11:23:17.137Z,65.21
2023-12-27T11:25:45.461Z,65.38
2023-12-27T11:28:14.791Z,65.08
2023-12-27T11:30:44.691Z,64.71
2023-12-27T11:33:31.433Z,65.00
2023-12-27T11:36:01.844Z,64.48
2023-12-27T11:38:30.427Z,64.26
2023-12-27T11:41:02.783Z,64.68
2023-12-27T11:43:55.007Z,64.52
2023-12-27T11:46:28.392Z,64.63
2023-12-27T11:49:00.288Z,64.47
2023-12-27T11:51:37.795Z,64.51
2023-12-27T11:54:10.503Z,63.58
2023-12-27T11:56:41.115Z,63.37
2023-12-27T11:59:10.683Z,63.69
2023-12-27T12:01:41.848Z,63.79
2023-12-27T12:04:46.041Z,63.78
2023-12-27T12:07:55.974Z,63.56
2023-12-27T12:10:28.407Z,63.36
2023-12-27T12:12:59.523Z,63.25
2023-12-27T12:15:32.700Z,62.94
2023-12-27T12:18:01.898Z,62.63
2023-12-27T12:20:32.025Z,62.60
2023-12-27T12:23:01.122Z,62.27
2023-12-27T12:25:29.420Z,62.00
2023-12-27T12:27:58.054Z,61.80
2023-12-27T12:30:26.863Z,62.02
2023-12-27T12:32:55.878Z,62.25
2023-12-27T12:35:25.417Z,61.88
2023-12-27T12:37:53.842Z,61.84
2023-12-27T12:40:23.181Z,61.82
2023-12-27T12:42:52.118Z,61.44
2023-12-27T12:45:20.594Z,61.34
2023-12-27T12:47:50.714Z,61.41
2023-12-27T12:50:19.943Z,61.29
2023-12-27T12:52:48.266Z,61.67
2023-12-27T12:55:18.611Z,62.18
2023-12-27T12:57:47.148Z,62.24
2023-12-27T13:00:23.066Z,62.12
2023-12-27T13:02:54.316Z,62.40
2023-12-27T13:05:22.909Z,62.20
2023-12-27T13:07:51.304Z,62.55
2023-12-27T13:10:20.415Z,62.50
2023-12-27T13:12:48.754Z,62.73
2023-12-27T13:15:21.183Z,62.99
2023-12-27T13:17:50.237Z,63.60
2023-12-27T13:20:18.526Z,63.59
2023-12-27T13:22:46.692Z,63.23
2023-12-27T13:25:17.824Z,62.91
2023-12-27T13:27:55.331Z,62.94
2023-12-27T13:30:30.534Z,62.59
2023-12-27T13:33:03.595Z,62.86
2023-12-27T13:35:32.905Z,63.01
2023-12-27T13:38:01.294Z,62.93
2023-12-27T13:40:31.181Z,63.14
2023-12-27T13:42:59.484Z,63.26
2023-12-27T13:45:28.178Z,63.43
2023-12-27T13:47:56.824Z,63.40
2023-12-27T13:50:25.270Z,63.38
2023-12-27T13:52:53.466Z,63.38
2023-12-27T13:55:24.817Z,63.58
2023-12-27T13:57:53.257Z,63.59
2023-12-27T14:00:21.845Z,63.61
2023-12-27T14:02:52.982Z,63.82
2023-12-27T14:05:21.461Z,63.95
2023-12-27T14:07:50.108Z,64.17
2023-12-27T14:10:20.269Z,64.00
2023-12-27T14:12:48.628Z,64.27
2023-12-27T14:15:18.118Z,64.26
2023-12-27T14:17:47.149Z,64.50
2023-12-27T14:20:15.789Z,64.63
2023-12-27T14:22:44.205Z,65.03
2023-12-27T14:25:14.968Z,64.80
2023-12-27T14:27:46.193Z,64.99
2023-12-27T14:30:15.287Z,64.96
2023-12-27T14:32:43.881Z,65.07
2023-12-27T14:35:12.417Z,65.23
2023-12-27T14:37:41.722Z,65.04
2023-12-27T14:40:12.022Z,65.35
2023-12-27T14:42:40.476Z,65.44
2023-12-27T14:45:13.550Z,65.35
2023-12-27T14:47:41.787Z,65.51
2023-12-27T14:50:11.082Z,65.57
2023-12-27T14:52:40.153Z,65.88
2023-12-27T14:55:10.196Z,65.77
2023-12-27T14:57:38.622Z,66.16
2023-12-27T15:00:07.873Z,66.38
2023-12-27T15:02:38.600Z,66.41
2023-12-27T15:05:10.221Z,66.39
2023-12-27T15:07:38.600Z,66.39
2023-12-27T15:10:09.148Z,66.87
2023-12-27T15:12:37.453Z,66.48
2023-12-27T15:15:06.645Z,66.81
2023-12-27T15:17:34.987Z,66.81
2023-12-27T15:20:03.674Z,67.15
2023-12-27T15:22:31.943Z,67.10
2023-12-27T15:25:00.498Z,67.35
2023-12-27T15:27:28.863Z,67.45
2023-12-27T15:29:58.982Z,67.62
2023-12-27T15:32:27.465Z,67.46
2023-12-27T15:34:57.395Z,67.84
2023-12-27T15:37:25.617Z,67.83
2023-12-27T15:39:53.998Z,67.75
2023-12-27T15:42:22.267Z,67.99
2023-12-27T15:44:50.482Z,67.98
2023-12-27T15:47:20.340Z,68.14
2023-12-27T15:49:48.642Z,68.09
2023-12-27T15:52:16.886Z,68.15
2023-12-27T15:54:45.213Z,68.48
2023-12-27T15:57:13.537Z,68.57
2023-12-27T15:59:41.784Z,68.65
2023-12-27T16:02:10.051Z,68.66
2023-12-27T16:04:38.591Z,68.54
2023-12-27T16:07:06.988Z,68.71
2023-12-27T16:09:35.240Z,68.73
2023-12-27T16:12:04.856Z,69.05
2023-12-27T16:14:36.295Z,68.89
2023-12-27T16:17:05.636Z,69.12
2023-12-27T16:19:37.014Z,69.24
2023-12-27T16:22:05.531Z,69.34
2023-12-27T16:24:33.937Z,69.27
2023-12-27T16:27:04.315Z,69.17
2023-12-27T16:29:32.775Z,69.53
2023-12-27T16:32:01.128Z,69.37
2023-12-27T16:34:29.472Z,69.42
2023-12-27T16:36:57.678Z,69.54
2023-12-27T16:39:25.892Z,69.80
2023-12-27T16:41:54.153Z,70.01
2023-12-27T16:44:25.010Z,69.70
2023-12-27T16:46:53.272Z,69.85
2023-12-27T16:49:21.539Z,69.92
2023-12-27T16:51:49.910Z,69.98
2023-12-27T16:54:18.402Z,70.00
2023-12-27T16:56:48.958Z,70.20
2023-12-27T16:59:17.198Z,70.21
2023-12-27T17:01:45.553Z,70.15
2023-12-27T17:04:14.038Z,70.32
2023-12-27T17:06:42.522Z,70.07
2023-12-27T17:09:10.901Z,70.21
2023-12-27T17:11:39.453Z,70.33
2023-12-27T17:14:07.709Z,70.17
2023-12-27T17:16:35.882Z,70.44
2023-12-27T17:19:04.485Z,70.27
2023-12-27T17:21:32.991Z,70.29
2023-12-27T17:24:01.841Z,70.20
2023-12-27T17:26:30.086Z,70.17
2023-12-27T17:28:58.289Z,70.12
2023-12-27T17:31:26.618Z,70.25
2023-12-27T17:33:54.916Z,70.26
2023-12-27T17:36:23.275Z,70.36
2023-12-27T17:38:51.498Z,70.38
2023-12-27T17:41:19.815Z,70.32
2023-12-27T17:43:48.775Z,70.43
2023-12-27T17:46:17.730Z,70.48
2023-12-27T17:48:47.140Z,70.42
2023-12-27T17:51:15.710Z,70.32
2023-12-27T17:53:43.972Z,70.36
2023-12-27T17:56:12.198Z,70.13
2023-12-27T17:58:40.387Z,70.29
2023-12-27T18:01:09.242Z,70.24
2023-12-27T18:03:37.544Z,70.17
2023-12-27T18:06:07.886Z,70.24
2023-12-27T18:08:36.162Z,70.25
2023-12-27T18:11:04.979Z,70.09
2023-12-27T18:13:34.933Z,70.15
2023-12-27T18:16:04.329Z,70.16
2023-12-27T18:18:32.959Z,70.10
2023-12-27T18:21:02.062Z,70.16
2023-12-27T18:23:30.271Z,70.17
2023-12-27T18:25:58.672Z,70.00
2023-12-27T18:28:27.172Z,69.87
2023-12-27T18:30:57.924Z,69.93
2023-12-27T18:33:26.368Z,70.26
2023-12-27T18:35:58.602Z,70.10
2023-12-27T18:38:26.970Z,69.91
2023-12-27T18:40:55.156Z,70.04
2023-12-27T18:43:24.945Z,70.06
2023-12-27T18:45:53.187Z,70.11
2023-12-27T18:48:21.824Z,70.16
2023-12-27T18:50:50.835Z,69.76
2023-12-27T18:53:19.891Z,69.78
2023-12-27T18:55:48.175Z,69.91
2023-12-27T18:58:16.407Z,69.89
2023-12-27T19:00:47.706Z,69.97
2023-12-27T19:03:17.144Z,69.98
2023-12-27T19:05:45.703Z,70.06
2023-12-27T19:08:14.409Z,69.92
2023-12-27T19:10:42.644Z,70.13
2023-12-27T19:13:10.973Z,70.13
2023-12-27T19:15:39.266Z,70.17
2023-12-27T19:18:07.713Z,70.07
2023-12-27T19:20:36.763Z,70.09
2023-12-27T19:23:04.971Z,70.06
2023-12-27T19:25:33.213Z,69.80
2023-12-27T19:28:03.456Z,69.62
2023-12-27T19:30:31.676Z,69.78
2023-12-27T19:33:00.164Z,69.59
2023-12-27T19:35:28.646Z,69.67
2023-12-27T19:37:58.268Z,69.68
2023-12-27T19:40:26.464Z,69.73
2023-12-27T19:42:54.956Z,69.91
2023-12-27T19:45:23.454Z,69.85
2023-12-27T19:47:51.690Z,69.89
2023-12-27T19:50:20.061Z,69.91
2023-12-27T19:52:48.254Z,69.84
2023-12-27T19:55:16.522Z,69.95
2023-12-27T19:57:44.780Z,69.92
2023-12-27T20:00:14.493Z,70.00
2023-12-27T20:02:43.096Z,70.18
2023-12-27T20:05:11.513Z,70.10
2023-12-27T20:07:39.858Z,69.88
2023-12-27T20:10:08.851Z,70.24
2023-12-27T20:12:37.140Z,70.17
2023-12-27T20:15:09.284Z,70.22
2023-12-27T20:17:38.589Z,70.13
2023-12-27T20:20:07.735Z,70.22
2023-12-27T20:22:35.983Z,70.30
2023-12-27T20:25:04.602Z,70.53
2023-12-27T20:27:32.813Z,70.64
2023-12-27T20:30:01.182Z,70.58
2023-12-27T20:32:30.768Z,70.89
2023-12-27T20:35:00.772Z,71.07
2023-12-27T20:37:31.538Z,70.94
2023-12-27T20:40:00.530Z,71.19
2023-12-27T20:42:28.817Z,71.28
2023-12-27T20:44:57.311Z,71.26
2023-12-27T20:47:25.552Z,71.38
2023-12-27T20:49:54.394Z,71.16
2023-12-27T20:52:22.774Z,71.41
2023-12-27T20:54:51.029Z,71.77
2023-12-27T20:57:19.377Z,71.73
2023-12-27T20:59:48.355Z,71.80
2023-12-27T21:02:16.605Z,72.02
2023-12-27T21:04:47.970Z,72.05
2023-12-27T21:07:18.352Z,72.12
2023-12-27T21:09:46.689Z,72.36
2023-12-27T21:12:15.064Z,72.17
2023-12-27T21:14:43.275Z,72.28
2023-12-27T21:17:11.572Z,72.33
2023-12-27T21:19:40.813Z,72.50
2023-12-27T21:22:09.453Z,72.53
2023-12-27T21:24:37.720Z,72.58
2023-12-27T21:27:05.932Z,72.66
2023-12-27T21:29:34.220Z,72.65
2023-12-27T21:32:02.475Z,72.62
2023-12-27T21:34:30.725Z,73.03
2023-12-27T21:36:59.042Z,72.77
2023-12-27T21:39:27.443Z,72.49
2023-12-27T21:41:58.249Z,72.70
2023-12-27T21:44:27.022Z,72.86
2023-12-27T21:46:55.247Z,73.06
2023-12-27T21:49:23.497Z,73.30
2023-12-27T21:51:51.768Z,72.97
2023-12-27T21:54:20.917Z,72.99
2023-12-27T21:56:49.175Z,72.92
2023-12-27T21:59:17.448Z,73.31
2023-12-27T22:01:45.696Z,73.20
2023-12-27T22:04:15.069Z,73.44
2023-12-27T22:06:46.014Z,73.26
2023-12-27T22:09:14.740Z,73.22
2023-12-27T22:11:43.033Z,73.20
2023-12-27T22:14:11.286Z,73.37
2023-12-27T22:16:39.827Z,73.53
2023-12-27T22:19:08.198Z,73.43
2023-12-27T22:21:36.701Z,73.50
2023-12-27T22:24:05.545Z,73.69
2023-12-27T22:26:33.787Z,73.64
2023-12-27T22:29:02.073Z,73.81
2023-12-27T22:31:30.449Z,73.85
2023-12-27T22:33:58.861Z,74.04
2023-12-27T22:36:27.281Z,74.07
2023-12-27T22:38:56.002Z,73.99
2023-12-27T22:41:24.586Z,73.89
2023-12-27T22:43:53.169Z,74.06
2023-12-27T22:46:21.509Z,73.93
2023-12-27T22:48:49.897Z,73.97
2023-12-27T22:51:18.515Z,73.87
2023-12-27T22:53:46.806Z,74.06
2023-12-27T22:56:15.044Z,73.83
2023-12-27T22:58:43.552Z,73.98
2023-12-27T23:01:11.876Z,73.87
2023-12-27T23:03:40.220Z,74.14
2023-12-27T23:06:12.829Z,73.86
2023-12-27T23:08:41.178Z,74.13
2023-12-27T23:11:09.416Z,74.06
2023-12-27T23:13:37.703Z,74.41
2023-12-27T23:16:06.488Z,73.99
2023-12-27T23:18:34.815Z,74.28
2023-12-27T23:21:03.400Z,74.30
2023-12-27T23:23:31.644Z,74.34
2023-12-27T23:26:00.430Z,74.41
2023-12-27T23:28:30.066Z,74.37
2023-12-27T23:30:58.633Z,74.38
2023-12-27T23:33:27.214Z,74.32
2023-12-27T23:35:55.633Z,74.37
2023-12-27T23:38:23.875Z,74.41
2023-12-27T23:40:52.253Z,74.44
2023-12-27T23:43:20.688Z,74.79
2023-12-27T23:45:49.022Z,74.62
2023-12-27T23:48:18.383Z,74.62
2023-12-27T23:50:46.722Z,74.86
2023-12-27T23:53:14.975Z,74.59
2023-12-27T23:55:43.171Z,74.83
2023-12-27T23:58:13.974Z,74.99
